createdAt,value
2018-04-28T00:00:36.115Z,100177.35
2018-04-28T00:03:04.655Z,100175.50
2018-04-28T00:05:32.920Z,100177.78
2018-04-28T00:08:01.248Z,100181.05
2018-04-28T00:10:30.393Z,100177.14
2018-04-28T00:12:58.682Z,100189.63
2018-04-28T00:15:27.003Z,100187.27
2018-04-28T00:17:56.138Z,100187.53
2018-04-28T00:20:24.463Z,100186.37
2018-04-28T00:22:55.602Z,100184.97
2018-04-28T00:25:29.677Z,100191.05
2018-04-28T00:31:13.283Z,100195.14
2018-04-28T00:33:43.104Z,100196.48
2018-04-28T00:36:22.116Z,100199.57
2018-04-28T00:38:55.816Z,100202.30
2018-04-28T00:41:24.094Z,100200.05
2018-04-28T00:43:53.947Z,100207.23
2018-04-28T00:46:29.082Z,100204.51
2018-04-28T00:48:59.039Z,100205.52
2018-04-28T00:51:30.107Z,100206.00
2018-04-28T01:00:34.769Z,100210.03
2018-04-28T01:03:03.919Z,100213.34
2018-04-28T01:05:48.155Z,100216.86
2018-04-28T01:08:19.066Z,100216.37
2018-04-28T01:10:49.849Z,100216.56
2018-04-28T01:13:18.119Z,100219.38
2018-04-28T01:15:46.602Z,100213.83
2018-04-28T01:18:16.387Z,100219.58
2018-04-28T01:20:46.318Z,100218.47
2018-04-28T01:23:20.919Z,100217.63
2018-04-28T01:25:51.166Z,100213.57
2018-04-28T01:28:30.191Z,100217.96
2018-04-28T01:31:02.056Z,100220.23
2018-04-28T01:33:53.050Z,100225.04
2018-04-28T01:39:37.024Z,100228.08
2018-04-28T01:45:29.008Z,100225.16
2018-04-28T01:48:02.869Z,100234.91
2018-04-28T01:50:42.786Z,100234.64
2018-04-28T01:53:11.218Z,100238.63
2018-04-28T01:55:41.331Z,100233.89
2018-04-28T02:01:19.583Z,100247.05
2018-04-28T02:03:47.870Z,100247.36
2018-04-28T02:06:23.598Z,100252.80
2018-04-28T02:08:55.206Z,100252.88
2018-04-28T02:11:30.932Z,100259.38
2018-04-28T02:13:59.993Z,100263.69
2018-04-28T02:16:32.081Z,100267.94
2018-04-28T02:19:12.307Z,100268.88
2018-04-28T02:24:47.903Z,100265.13
2018-04-28T02:27:27.724Z,100263.36
2018-04-28T02:30:04.716Z,100266.17
2018-04-28T02:32:32.999Z,100263.09
2018-04-28T02:35:07.131Z,100272.77
2018-04-28T02:37:41.143Z,100270.20
2018-04-28T02:40:12.011Z,100271.69
2018-04-28T02:42:43.925Z,100271.42
2018-04-28T02:45:29.755Z,100270.02
2018-04-28T02:48:05.448Z,100273.25
2018-04-28T02:50:35.773Z,100276.86
2018-04-28T02:53:15.712Z,100278.18
2018-04-28T02:55:51.691Z,100272.11
2018-04-28T02:58:23.603Z,100278.00
2018-04-28T03:00:57.829Z,100281.91
2018-04-28T03:03:28.651Z,100292.48
2018-04-28T03:05:59.643Z,100286.72
2018-04-28T03:08:46.511Z,100295.88
2018-04-28T03:11:17.348Z,100293.19
2018-04-28T03:13:47.392Z,100295.20
2018-04-28T03:16:21.695Z,100297.86
2018-04-28T03:18:49.989Z,100299.42
2018-04-28T03:21:18.270Z,100299.76
2018-04-28T03:23:47.370Z,100301.42
2018-04-28T03:26:23.842Z,100299.34
2018-04-28T03:28:52.394Z,100299.84
2018-04-28T03:31:37.573Z,100307.97
2018-04-28T03:37:30.427Z,100310.02
2018-04-28T03:43:07.652Z,100321.64
2018-04-28T03:45:36.671Z,100321.85
2018-04-28T03:48:11.711Z,100318.02
2018-04-28T03:50:40.903Z,100317.65
2018-04-28T03:53:24.271Z,100313.20
2018-04-28T03:55:54.992Z,100314.83
2018-04-28T03:58:34.994Z,100313.31
2018-04-28T04:01:15.237Z,100319.95
2018-04-28T04:03:55.305Z,100322.28
2018-04-28T04:09:21.055Z,100324.05
2018-04-28T04:12:13.919Z,100327.09
2018-04-28T04:14:57.947Z,100335.87
2018-04-28T04:17:38.802Z,100336.77
2018-04-28T04:23:15.407Z,100344.21
2018-04-28T04:26:03.197Z,100346.77
2018-04-28T04:28:37.531Z,100346.54
2018-04-28T04:31:14.455Z,100350.84
2018-04-28T04:36:57.705Z,100357.72
2018-04-28T04:39:29.928Z,100354.12
2018-04-28T04:45:15.568Z,100365.59
2018-04-28T04:47:55.615Z,100363.05
2018-04-28T04:50:38.365Z,100374.00
2018-04-28T04:56:21.287Z,100382.25
2018-04-28T05:02:10.105Z,100387.52
2018-04-28T05:04:50.290Z,100387.09
2018-04-28T05:07:37.277Z,100385.63
2018-04-28T05:10:17.447Z,100393.03
2018-04-28T05:15:49.840Z,100387.91
2018-04-28T05:18:36.996Z,100391.22
2018-04-28T05:21:11.783Z,100400.47
2018-04-28T05:23:46.642Z,100398.52
2018-04-28T05:29:39.400Z,100405.08
2018-04-28T05:32:19.574Z,100402.23
2018-04-28T05:35:09.328Z,100410.70
2018-04-28T05:37:47.204Z,100408.24
2018-04-28T05:40:21.890Z,100416.17
2018-04-28T05:43:02.010Z,100416.55
2018-04-28T05:48:40.241Z,100420.44
2018-04-28T05:51:31.232Z,100434.47
2018-04-28T05:54:20.329Z,100435.03
2018-04-28T05:59:57.973Z,100437.77
2018-04-28T06:05:35.099Z,100440.63
2018-04-28T06:11:27.819Z,100442.16
2018-04-28T06:14:07.844Z,100443.81
2018-04-28T06:19:59.410Z,100453.02
2018-04-28T06:22:27.608Z,100452.36
2018-04-28T06:24:56.132Z,100468.03
2018-04-28T06:27:24.432Z,100467.83
2018-04-28T06:29:52.716Z,100473.39
2018-04-28T06:32:21.008Z,100479.28
2018-04-28T06:34:49.281Z,100475.86
2018-04-28T06:37:17.570Z,100484.64
2018-04-28T06:39:45.836Z,100482.45
2018-04-28T06:42:14.274Z,100481.99
2018-04-28T06:44:42.685Z,100478.13
2018-04-28T06:47:11.276Z,100486.72
2018-04-28T06:49:39.697Z,100483.50
2018-04-28T06:52:07.959Z,100482.50
2018-04-28T06:54:36.220Z,100479.99
2018-04-28T06:57:04.525Z,100486.25
2018-04-28T06:59:32.890Z,100491.28
2018-04-28T07:02:01.195Z,100498.40
2018-04-28T07:04:29.554Z,100494.86
2018-04-28T07:06:57.779Z,100494.08
2018-04-28T07:09:26.057Z,100490.75
2018-04-28T07:11:54.339Z,100495.70
2018-04-28T07:14:23.327Z,100486.67
2018-04-28T07:16:51.623Z,100494.32
2018-04-28T07:19:20.043Z,100493.06
2018-04-28T07:21:48.623Z,100488.48
2018-04-28T07:24:16.905Z,100491.84
2018-04-28T07:26:45.431Z,100490.57
2018-04-28T07:29:13.762Z,100494.95
2018-04-28T07:31:42.799Z,100489.66
2018-04-28T07:34:11.062Z,100487.09
2018-04-28T07:36:39.348Z,100487.93
2018-04-28T07:39:07.644Z,100492.30
2018-04-28T07:41:35.990Z,100493.83
2018-04-28T07:44:04.297Z,100488.84
2018-04-28T07:46:32.594Z,100487.38
2018-04-28T07:49:01.075Z,100489.66
2018-04-28T07:51:29.482Z,100483.41
2018-04-28T07:53:57.780Z,100491.09
2018-04-28T07:56:26.269Z,100488.73
2018-04-28T07:58:54.802Z,100484.39
2018-04-28T08:01:23.036Z,100493.02
2018-04-28T08:03:51.346Z,100483.75
2018-04-28T08:06:19.647Z,100491.59
2018-04-28T08:08:47.933Z,100492.25
2018-04-28T08:11:16.370Z,100493.36
2018-04-28T08:13:44.655Z,100487.44
2018-04-28T08:16:12.923Z,100496.34
2018-04-28T08:18:41.436Z,100484.45
2018-04-28T08:21:09.730Z,100491.20
2018-04-28T08:23:37.991Z,100480.39
2018-04-28T08:26:06.288Z,100485.31
2018-04-28T08:28:34.875Z,100484.51
2018-04-28T08:31:03.492Z,100482.50
2018-04-28T08:33:31.790Z,100485.14
2018-04-28T08:36:00.070Z,100493.66
2018-04-28T08:38:28.367Z,100488.11
2018-04-28T08:40:56.643Z,100502.77
2018-04-28T08:43:24.942Z,100486.91
2018-04-28T08:45:53.390Z,100492.84
2018-04-28T08:48:21.887Z,100494.43
2018-04-28T08:50:50.186Z,100486.42
2018-04-28T08:53:18.625Z,100491.58
2018-04-28T08:55:46.907Z,100485.63
2018-04-28T08:58:15.195Z,100489.86
2018-04-28T09:01:02.150Z,100502.91
2018-04-28T09:03:30.412Z,100499.25
2018-04-28T09:05:58.694Z,100496.54
2018-04-28T09:08:26.973Z,100490.42
2018-04-28T09:10:55.401Z,100489.16
2018-04-28T09:13:23.665Z,100492.08
2018-04-28T09:15:51.963Z,100503.26
2018-04-28T09:18:20.233Z,100487.50
2018-04-28T09:20:48.538Z,100477.20
2018-04-28T09:23:16.815Z,100487.48
2018-04-28T09:25:45.113Z,100488.47
2018-04-28T09:28:13.376Z,100478.99
2018-04-28T09:30:41.659Z,100485.36
2018-04-28T09:33:09.939Z,100482.83
2018-04-28T09:35:38.476Z,100478.80
2018-04-28T09:38:06.839Z,100486.84
2018-04-28T09:40:35.067Z,100482.00
2018-04-28T09:43:03.379Z,100501.53
2018-04-28T09:45:31.638Z,100497.55
2018-04-28T09:47:59.942Z,100498.28
2018-04-28T09:50:28.220Z,100509.67
2018-04-28T09:52:56.480Z,100501.00
2018-04-28T09:55:24.750Z,100491.20
2018-04-28T09:58:04.700Z,100491.36
2018-04-28T10:03:36.641Z,100496.78
2018-04-28T10:06:04.929Z,100508.30
2018-04-28T10:08:34.252Z,100502.33
2018-04-28T10:11:02.547Z,100517.12
2018-04-28T10:13:30.947Z,100508.49
2018-04-28T10:15:59.273Z,100515.20
2018-04-28T10:18:27.654Z,100517.23
2018-04-28T10:20:55.925Z,100507.05
2018-04-28T10:23:24.218Z,100516.55
2018-04-28T10:25:52.486Z,100519.70
2018-04-28T10:28:20.773Z,100522.71
2018-04-28T10:30:49.113Z,100521.95
2018-04-28T10:33:17.553Z,100512.72
2018-04-28T10:35:45.828Z,100509.92
2018-04-28T10:38:14.203Z,100509.42
2018-04-28T10:40:42.497Z,100508.38
2018-04-28T10:43:10.758Z,100496.28
2018-04-28T10:45:39.076Z,100503.78
2018-04-28T10:48:07.831Z,100484.11
2018-04-28T10:50:36.297Z,100481.88
2018-04-28T10:53:04.561Z,100485.52
2018-04-28T10:55:32.856Z,100486.38
2018-04-28T10:58:01.130Z,100492.60
2018-04-28T11:00:29.415Z,100481.33
2018-04-28T11:02:57.688Z,100476.81
2018-04-28T11:05:26.069Z,100467.56
2018-04-28T11:07:54.505Z,100486.19
2018-04-28T11:10:22.773Z,100473.59
2018-04-28T11:12:51.156Z,100488.67
2018-04-28T11:15:19.793Z,100483.95
2018-04-28T11:17:48.035Z,100479.91
2018-04-28T11:20:16.348Z,100471.22
2018-04-28T11:22:44.633Z,100483.77
2018-04-28T11:25:12.887Z,100478.56
2018-04-28T11:27:41.253Z,100464.43
2018-04-28T11:30:09.532Z,100465.71
2018-04-28T11:32:37.846Z,100471.83
2018-04-28T11:35:07.342Z,100474.30
2018-04-28T11:37:35.642Z,100472.13
2018-04-28T11:40:08.018Z,100470.95
2018-04-28T11:42:36.330Z,100473.50
2018-04-28T11:45:07.847Z,100457.31
2018-04-28T11:47:36.157Z,100463.52
2018-04-28T11:50:07.977Z,100463.87
2018-04-28T11:52:36.276Z,100463.77
2018-04-28T11:55:08.391Z,100465.77
2018-04-28T11:57:36.676Z,100453.39
2018-04-28T12:00:07.886Z,100456.80
2018-04-28T12:02:36.239Z,100456.47
2018-04-28T12:05:08.374Z,100465.98
2018-04-28T12:07:36.724Z,100441.24
2018-04-28T12:10:06.829Z,100439.97
2018-04-28T12:12:35.103Z,100448.19
2018-04-28T12:15:06.540Z,100446.07
2018-04-28T12:17:34.886Z,100455.11
2018-04-28T12:20:06.498Z,100436.72
2018-04-28T12:22:34.755Z,100437.13
2018-04-28T12:25:05.552Z,100439.06
2018-04-28T12:27:33.840Z,100437.41
2018-04-28T12:30:07.421Z,100440.13
2018-04-28T12:32:35.714Z,100442.94
2018-04-28T12:35:07.307Z,100455.91
2018-04-28T12:37:35.598Z,100442.39
2018-04-28T12:40:05.548Z,100450.19
2018-04-28T12:42:33.830Z,100449.33
2018-04-28T12:45:05.390Z,100450.02
2018-04-28T12:47:33.657Z,100451.88
2018-04-28T12:50:04.967Z,100441.27
2018-04-28T12:52:33.239Z,100437.84
2018-04-28T12:55:08.090Z,100430.27
2018-04-28T12:57:36.359Z,100446.77
2018-04-28T13:00:05.585Z,100434.86
2018-04-28T13:02:33.879Z,100445.17
2018-04-28T13:05:05.826Z,100455.90
2018-04-28T13:07:34.195Z,100445.48
2018-04-28T13:10:08.248Z,100444.59
2018-04-28T13:12:36.535Z,100438.98
2018-04-28T13:15:05.870Z,100446.53
2018-04-28T13:17:34.316Z,100439.23
2018-04-28T13:20:05.855Z,100445.16
2018-04-28T13:22:34.195Z,100433.68
2018-04-28T13:25:06.026Z,100425.48
2018-04-28T13:27:34.275Z,100420.63
2018-04-28T13:30:06.180Z,100414.59
2018-04-28T13:32:34.459Z,100411.91
2018-04-28T13:35:05.880Z,100356.95
2018-04-28T13:37:34.176Z,100408.53
2018-04-28T13:40:05.578Z,100409.86
2018-04-28T13:42:33.895Z,100408.69
2018-04-28T13:45:05.299Z,100408.20
2018-04-28T13:47:33.564Z,100403.31
2018-04-28T13:50:05.055Z,100400.08
2018-04-28T13:52:33.378Z,100397.81
2018-04-28T13:55:08.176Z,100381.75
2018-04-28T13:57:36.591Z,100386.46
2018-04-28T14:00:06.556Z,100383.66
2018-04-28T14:02:34.812Z,100379.20
2018-04-28T14:05:06.491Z,100376.97
2018-04-28T14:07:34.957Z,100383.64
2018-04-28T14:10:06.484Z,100370.27
2018-04-28T14:12:34.759Z,100385.92
2018-04-28T14:15:06.526Z,100380.97
2018-04-28T14:17:34.794Z,100384.06
2018-04-28T14:20:06.140Z,100390.67
2018-04-28T14:22:34.405Z,100371.27
2018-04-28T14:25:06.088Z,100375.15
2018-04-28T14:27:34.383Z,100377.70
2018-04-28T14:30:06.305Z,100374.05
2018-04-28T14:32:34.984Z,100369.84
2018-04-28T14:35:07.768Z,100363.75
2018-04-28T14:37:36.056Z,100359.80
2018-04-28T14:40:07.817Z,100358.87
2018-04-28T14:42:41.735Z,100358.36
2018-04-28T14:45:10.036Z,100353.09
2018-04-28T14:47:38.304Z,100355.78
2018-04-28T14:50:06.615Z,100357.21
2018-04-28T14:52:34.895Z,100360.96
2018-04-28T14:55:06.855Z,100366.52
2018-04-28T14:57:35.168Z,100364.04
2018-04-28T15:00:07.308Z,100367.83
2018-04-28T15:02:35.612Z,100375.98
2018-04-28T15:05:07.538Z,100370.52
2018-04-28T15:07:35.867Z,100372.72
2018-04-28T15:10:08.936Z,100373.45
2018-04-28T15:12:37.232Z,100372.42
2018-04-28T15:15:06.331Z,100372.00
2018-04-28T15:17:34.915Z,100361.73
2018-04-28T15:20:06.144Z,100372.16
2018-04-28T15:22:34.413Z,100378.52
2018-04-28T15:25:07.350Z,100373.52
2018-04-28T15:27:35.664Z,100377.68
2018-04-28T15:30:08.011Z,100373.22
2018-04-28T15:32:36.307Z,100378.46
2018-04-28T15:35:07.499Z,100374.91
2018-04-28T15:37:35.811Z,100388.94
2018-04-28T15:40:07.230Z,100388.38
2018-04-28T15:42:35.537Z,100396.52
2018-04-28T15:45:06.048Z,100386.53
2018-04-28T15:47:34.350Z,100388.02
2018-04-28T15:50:06.182Z,100387.06
2018-04-28T15:52:34.745Z,100394.86
2018-04-28T15:55:06.268Z,100401.02
2018-04-28T15:57:34.535Z,100391.15
2018-04-28T16:00:08.596Z,100396.00
2018-04-28T16:02:36.959Z,100393.22
2018-04-28T16:05:06.042Z,100400.65
2018-04-28T16:07:34.334Z,100403.27
2018-04-28T16:10:07.261Z,100397.01
2018-04-28T16:12:35.539Z,100393.34
2018-04-28T16:15:06.972Z,100394.89
2018-04-28T16:17:35.246Z,100394.44
2018-04-28T16:20:06.882Z,100386.02
2018-04-28T16:22:35.131Z,100387.47
2018-04-28T16:25:06.891Z,100383.76
2018-04-28T16:27:35.431Z,100385.58
2018-04-28T16:30:08.693Z,100384.56
2018-04-28T16:32:36.987Z,100380.70
2018-04-28T16:35:06.287Z,100381.16
2018-04-28T16:37:34.804Z,100374.97
2018-04-28T16:40:06.082Z,100372.64
2018-04-28T16:42:34.751Z,100366.70
2018-04-28T16:45:06.138Z,100361.95
2018-04-28T16:47:34.960Z,100366.86
2018-04-28T16:50:06.938Z,100367.23
2018-04-28T16:52:35.238Z,100360.48
2018-04-28T16:55:06.834Z,100359.84
2018-04-28T16:57:35.118Z,100356.88
2018-04-28T17:00:07.034Z,100355.10
2018-04-28T17:02:35.363Z,100353.41
2018-04-28T17:05:07.505Z,100357.15
2018-04-28T17:07:35.787Z,100355.13
2018-04-28T17:10:06.178Z,100351.51
2018-04-28T17:12:34.509Z,100361.59
2018-04-28T17:15:09.399Z,100361.30
2018-04-28T17:18:00.646Z,100358.13
2018-04-28T17:20:28.913Z,100354.02
2018-04-28T17:22:57.172Z,100357.73
2018-04-28T17:25:25.452Z,100354.16
2018-04-28T17:27:53.780Z,100352.73
2018-04-28T17:30:22.057Z,100343.84
2018-04-28T17:32:50.327Z,100342.06
2018-04-28T17:35:18.749Z,100337.94
2018-04-28T17:37:47.057Z,100338.80
2018-04-28T17:40:15.347Z,100336.14
2018-04-28T17:42:43.687Z,100329.28
2018-04-28T17:45:12.279Z,100328.36
2018-04-28T17:47:40.714Z,100335.97
2018-04-28T17:50:08.989Z,100327.71
2018-04-28T17:52:37.270Z,100328.95
2018-04-28T17:55:06.404Z,100331.79
2018-04-28T17:57:34.698Z,100339.38
2018-04-28T18:00:06.008Z,100344.38
2018-04-28T18:02:35.048Z,100349.50
2018-04-28T18:05:06.412Z,100343.74
2018-04-28T18:07:35.112Z,100349.63
2018-04-28T18:10:06.255Z,100356.58
2018-04-28T18:12:34.638Z,100359.32
2018-04-28T18:15:06.092Z,100362.48
2018-04-28T18:17:34.401Z,100365.89
2018-04-28T18:20:09.477Z,100376.67
2018-04-28T18:22:37.829Z,100381.94
2018-04-28T18:25:06.852Z,100392.25
2018-04-28T18:27:35.164Z,100393.91
2018-04-28T18:30:06.348Z,100400.58
2018-04-28T18:32:34.625Z,100402.87
2018-04-28T18:35:07.364Z,100406.63
2018-04-28T18:37:36.328Z,100407.63
2018-04-28T18:40:07.622Z,100404.06
2018-04-28T18:42:36.013Z,100416.08
2018-04-28T18:45:07.962Z,100406.80
2018-04-28T18:47:36.384Z,100406.42
2018-04-28T18:50:08.402Z,100406.31
2018-04-28T18:52:37.671Z,100395.98
2018-04-28T18:55:07.226Z,100397.12
2018-04-28T18:57:35.692Z,100399.05
2018-04-28T19:00:08.792Z,100393.80
2018-04-28T19:02:37.229Z,100397.11
2018-04-28T19:05:06.626Z,100399.42
2018-04-28T19:07:35.120Z,100404.25
2018-04-28T19:10:07.220Z,100410.27
2018-04-28T19:12:35.649Z,100417.42
2018-04-28T19:15:07.510Z,100428.42
2018-04-28T19:17:36.102Z,100438.20
2018-04-28T19:20:08.229Z,100447.70
2018-04-28T19:22:36.932Z,100442.81
2018-04-28T19:25:06.918Z,100452.11
2018-04-28T19:27:35.253Z,100458.05
2018-04-28T19:30:07.672Z,100459.25
2018-04-28T19:32:36.016Z,100458.05
2018-04-28T19:35:07.930Z,100468.29
2018-04-28T19:37:36.244Z,100461.00
2018-04-28T19:40:11.837Z,100460.99
2018-04-28T19:42:40.318Z,100462.71
2018-04-28T19:45:12.691Z,100465.62
2018-04-28T19:47:41.071Z,100479.05
2018-04-28T19:50:14.127Z,100472.79
2018-04-28T19:52:42.595Z,100464.76
2018-04-28T19:55:10.993Z,100474.75
2018-04-28T19:57:39.287Z,100471.34
2018-04-28T20:00:08.955Z,100468.08
2018-04-28T20:02:37.748Z,100466.84
2018-04-28T20:05:06.810Z,100467.42
2018-04-28T20:07:35.170Z,100459.74
2018-04-28T20:10:08.048Z,100464.23
2018-04-28T20:12:36.656Z,100469.59
2018-04-28T20:15:12.339Z,100477.55
2018-04-28T20:17:40.739Z,100478.70
2018-04-28T20:20:10.124Z,100480.13
2018-04-28T20:22:50.126Z,100483.97
2018-04-28T20:25:22.500Z,100476.75
2018-04-28T20:27:50.882Z,100475.09
2018-04-28T20:30:19.206Z,100471.99
2018-04-28T20:32:47.511Z,100481.47
2018-04-28T20:35:15.850Z,100479.67
2018-04-28T20:37:44.057Z,100467.06
2018-04-28T20:40:12.451Z,100473.68
2018-04-28T20:42:40.789Z,100476.55
2018-04-28T20:45:09.636Z,100473.75
2018-04-28T20:47:37.949Z,100479.35
2018-04-28T20:50:06.467Z,100480.78
2018-04-28T20:52:34.732Z,100487.81
2018-04-28T20:55:05.744Z,100486.14
2018-04-28T20:57:34.058Z,100482.56
2018-04-28T21:00:05.829Z,100488.25
2018-04-28T21:02:34.127Z,100494.34
2018-04-28T21:05:05.642Z,100485.07
2018-04-28T21:07:33.907Z,100485.23
2018-04-28T21:10:08.860Z,100482.91
2018-04-28T21:12:37.230Z,100481.89
2018-04-28T21:15:05.643Z,100487.65
2018-04-28T21:17:33.919Z,100489.61
2018-04-28T21:20:05.470Z,100492.75
2018-04-28T21:22:33.747Z,100491.58
2018-04-28T21:25:06.738Z,100492.51
2018-04-28T21:27:35.007Z,100483.92
2018-04-28T21:30:06.778Z,100485.57
2018-04-28T21:32:35.081Z,100481.83
2018-04-28T21:35:06.600Z,100485.01
2018-04-28T21:37:34.866Z,100480.77
2018-04-28T21:40:06.329Z,100479.16
2018-04-28T21:42:34.798Z,100477.16
2018-04-28T21:45:06.195Z,100484.16
2018-04-28T21:47:34.464Z,100476.66
2018-04-28T21:50:05.983Z,100476.64
2018-04-28T21:52:34.216Z,100472.13
2018-04-28T21:55:05.590Z,100464.23
2018-04-28T21:57:33.905Z,100473.22
2018-04-28T22:00:05.234Z,100468.23
2018-04-28T22:02:33.495Z,100462.67
2018-04-28T22:05:04.984Z,100463.49
2018-04-28T22:07:33.540Z,100470.67
2018-04-28T22:10:05.296Z,100461.16
2018-04-28T22:12:33.590Z,100463.17
2018-04-28T22:15:05.431Z,100463.61
2018-04-28T22:17:33.826Z,100465.03
2018-04-28T22:20:06.060Z,100466.34
2018-04-28T22:22:34.335Z,100471.68
2018-04-28T22:25:05.851Z,100474.20
2018-04-28T22:27:34.144Z,100475.59
2018-04-28T22:30:08.799Z,100481.52
2018-04-28T22:32:37.398Z,100474.63
2018-04-28T22:35:07.046Z,100484.52
2018-04-28T22:37:35.324Z,100491.63
2018-04-28T22:40:06.640Z,100469.62
2018-04-28T22:42:34.924Z,100494.44
2018-04-28T22:45:06.267Z,100496.21
2018-04-28T22:47:34.604Z,100499.78
2018-04-28T22:50:09.718Z,100498.36
2018-04-28T22:52:37.991Z,100505.02
2018-04-28T22:55:07.106Z,100498.44
2018-04-28T22:57:35.381Z,100492.27
2018-04-28T23:00:06.652Z,100494.03
2018-04-28T23:02:34.932Z,100485.63
2018-04-28T23:05:05.538Z,100492.35
2018-04-28T23:07:33.833Z,100490.78
2018-04-28T23:10:05.566Z,100494.42
2018-04-28T23:12:33.852Z,100484.86
2018-04-28T23:15:07.080Z,100492.11
2018-04-28T23:17:35.367Z,100496.02
2018-04-28T23:20:07.279Z,100478.11
2018-04-28T23:22:35.554Z,100492.27
2018-04-28T23:25:06.961Z,100486.27
2018-04-28T23:27:35.256Z,100487.69
2018-04-28T23:30:06.962Z,100484.85
2018-04-28T23:32:35.279Z,100478.53
2018-04-28T23:35:06.585Z,100477.78
2018-04-28T23:37:34.875Z,100480.95
2018-04-28T23:40:06.918Z,100480.42
2018-04-28T23:42:35.239Z,100479.69
2018-04-28T23:45:06.639Z,100478.17
2018-04-28T23:47:34.939Z,100478.42
2018-04-28T23:50:06.441Z,100474.75
2018-04-28T23:52:34.955Z,100471.16
2018-04-28T23:55:06.495Z,100468.27
2018-04-28T23:57:34.763Z,100463.52
